sensor_id;sensor_type;location;lat;lon;timestamp;pressure;altitude;pressure_sealevel;temperature;humidity
73651;BME280;61944;52.538;6.108;2023-04-24T00:02:13;99574.97;;;11.01;100.00
73651;BME280;61944;52.538;6.108;2023-04-24T00:04:39;99573.53;;;10.75;100.00
73651;BME280;61944;52.538;6.108;2023-04-24T00:07:10;99577.63;;;10.67;100.00
73651;BME280;61944;52.538;6.108;2023-04-24T00:09:35;99573.34;;;11.00;100.00
73651;BME280;61944;52.538;6.108;2023-04-24T00:12:01;99573.78;;;10.98;100.00
73651;BME280;61944;52.538;6.108;2023-04-24T00:14:30;99579.78;;;10.97;100.00
73651;BME280;61944;52.538;6.108;2023-04-24T00:16:55;99582.31;;;10.77;100.00
73651;BME280;61944;52.538;6.108;2023-04-24T00:19:21;99580.88;;;11.10;100.00
73651;BME280;61944;52.538;6.108;2023-04-24T00:21:46;99581.34;;;11.02;100.00
73651;BME280;61944;52.538;6.108;2023-04-24T00:24:15;99584.72;;;10.78;100.00
73651;BME280;61944;52.538;6.108;2023-04-24T00:26:40;99576.09;;;10.55;100.00
73651;BME280;61944;52.538;6.108;2023-04-24T00:29:06;99572.38;;;10.69;100.00
73651;BME280;61944;52.538;6.108;2023-04-24T00:31:31;99576.88;;;10.59;100.00
73651;BME280;61944;52.538;6.108;2023-04-24T00:34:00;99574.47;;;10.61;100.00
73651;BME280;61944;52.538;6.108;2023-04-24T00:36:25;99574.34;;;10.75;100.00
73651;BME280;61944;52.538;6.108;2023-04-24T00:38:52;99580.84;;;10.62;100.00
73651;BME280;61944;52.538;6.108;2023-04-24T00:41:18;99578.75;;;10.73;100.00
73651;BME280;61944;52.538;6.108;2023-04-24T00:43:44;99580.91;;;10.54;100.00
73651;BME280;61944;52.538;6.108;2023-04-24T00:46:09;99576.63;;;10.35;100.00
73651;BME280;61944;52.538;6.108;2023-04-24T00:48:37;99580.13;;;10.47;100.00
73651;BME280;61944;52.538;6.108;2023-04-24T00:51:03;99584.50;;;10.55;100.00
73651;BME280;61944;52.538;6.108;2023-04-24T00:53:29;99583.13;;;10.00;100.00
73651;BME280;61944;52.538;6.108;2023-04-24T00:55:55;99581.81;;;10.33;100.00
73651;BME280;61944;52.538;6.108;2023-04-24T00:58:20;99592.16;;;10.44;100.00
73651;BME280;61944;52.538;6.108;2023-04-24T01:00:47;99583.41;;;10.34;100.00
73651;BME280;61944;52.538;6.108;2023-04-24T01:03:13;99581.78;;;10.37;100.00
73651;BME280;61944;52.538;6.108;2023-04-24T01:05:39;99589.38;;;10.36;100.00
73651;BME280;61944;52.538;6.108;2023-04-24T01:08:05;99600.09;;;10.49;100.00
73651;BME280;61944;52.538;6.108;2023-04-24T01:10:32;99590.22;;;10.33;100.00
73651;BME280;61944;52.538;6.108;2023-04-24T01:12:58;99591.53;;;10.04;100.00
73651;BME280;61944;52.538;6.108;2023-04-24T01:15:24;99587.84;;;10.25;100.00
73651;BME280;61944;52.538;6.108;2023-04-24T01:17:49;99600.66;;;10.18;100.00
73651;BME280;61944;52.538;6.108;2023-04-24T01:20:15;99588.72;;;10.04;100.00
73651;BME280;61944;52.538;6.108;2023-04-24T01:22:42;99587.84;;;10.21;100.00
73651;BME280;61944;52.538;6.108;2023-04-24T01:25:07;99599.53;;;9.94;100.00
73651;BME280;61944;52.538;6.108;2023-04-24T01:27:33;99596.38;;;9.89;100.00
73651;BME280;61944;52.538;6.108;2023-04-24T01:29:59;99596.84;;;9.59;100.00
73651;BME280;61944;52.538;6.108;2023-04-24T01:32:25;99600.03;;;9.64;100.00
73651;BME280;61944;52.538;6.108;2023-04-24T01:34:50;99594.81;;;9.77;100.00
73651;BME280;61944;52.538;6.108;2023-04-24T01:37:16;99586.72;;;10.04;100.00
73651;BME280;61944;52.538;6.108;2023-04-24T01:39:43;99587.56;;;9.97;100.00
73651;BME280;61944;52.538;6.108;2023-04-24T01:42:08;99587.50;;;10.08;100.00
73651;BME280;61944;52.538;6.108;2023-04-24T01:44:34;99589.13;;;9.98;100.00
73651;BME280;61944;52.538;6.108;2023-04-24T01:47:00;99590.78;;;9.85;100.00
73651;BME280;61944;52.538;6.108;2023-04-24T01:49:26;99589.97;;;9.92;100.00
73651;BME280;61944;52.538;6.108;2023-04-24T01:51:52;99584.81;;;9.83;100.00
73651;BME280;61944;52.538;6.108;2023-04-24T01:54:17;99594.31;;;9.96;100.00
73651;BME280;61944;52.538;6.108;2023-04-24T01:56:43;99593.69;;;9.53;100.00
73651;BME280;61944;52.538;6.108;2023-04-24T01:59:12;99596.72;;;9.94;100.00
73651;BME280;61944;52.538;6.108;2023-04-24T02:01:38;99590.00;;;9.81;100.00
73651;BME280;61944;52.538;6.108;2023-04-24T02:04:04;99598.00;;;9.79;100.00
73651;BME280;61944;52.538;6.108;2023-04-24T02:06:30;99585.25;;;9.67;100.00
73651;BME280;61944;52.538;6.108;2023-04-24T02:08:59;99597.19;;;9.75;100.00
73651;BME280;61944;52.538;6.108;2023-04-24T02:11:25;99606.38;;;9.75;100.00
73651;BME280;61944;52.538;6.108;2023-04-24T02:13:50;99598.75;;;9.90;100.00
73651;BME280;61944;52.538;6.108;2023-04-24T02:16:16;99595.19;;;9.79;100.00
73651;BME280;61944;52.538;6.108;2023-04-24T02:18:42;99588.81;;;9.75;100.00
73651;BME280;61944;52.538;6.108;2023-04-24T02:21:07;99593.22;;;9.69;100.00
73651;BME280;61944;52.538;6.108;2023-04-24T02:23:33;99595.63;;;9.63;100.00
73651;BME280;61944;52.538;6.108;2023-04-24T02:25:58;99601.22;;;9.74;100.00
73651;BME280;61944;52.538;6.108;2023-04-24T02:28:23;99594.44;;;9.61;100.00
73651;BME280;61944;52.538;6.108;2023-04-24T02:30:49;99595.97;;;9.76;100.00
73651;BME280;61944;52.538;6.108;2023-04-24T02:33:15;99602.03;;;9.64;100.00
73651;BME280;61944;52.538;6.108;2023-04-24T02:35:41;99605.63;;;9.46;100.00
73651;BME280;61944;52.538;6.108;2023-04-24T02:38:06;99607.63;;;9.64;100.00
73651;BME280;61944;52.538;6.108;2023-04-24T02:40:31;99601.13;;;9.88;100.00
73651;BME280;61944;52.538;6.108;2023-04-24T02:42:57;99596.34;;;9.96;100.00
73651;BME280;61944;52.538;6.108;2023-04-24T02:45:22;99598.03;;;9.61;100.00
73651;BME280;61944;52.538;6.108;2023-04-24T02:47:48;99594.09;;;9.41;100.00
73651;BME280;61944;52.538;6.108;2023-04-24T02:50:13;99604.03;;;9.60;100.00
73651;BME280;61944;52.538;6.108;2023-04-24T02:52:38;99598.84;;;9.54;100.00
73651;BME280;61944;52.538;6.108;2023-04-24T02:55:04;99608.44;;;9.53;100.00
73651;BME280;61944;52.538;6.108;2023-04-24T02:57:30;99606.81;;;9.52;100.00
73651;BME280;61944;52.538;6.108;2023-04-24T02:59:55;99604.84;;;9.46;100.00
73651;BME280;61944;52.538;6.108;2023-04-24T03:02:20;99601.66;;;9.33;100.00
73651;BME280;61944;52.538;6.108;2023-04-24T03:04:46;99623.59;;;9.42;100.00
73651;BME280;61944;52.538;6.108;2023-04-24T03:07:13;99615.22;;;9.38;100.00
73651;BME280;61944;52.538;6.108;2023-04-24T03:09:40;99626.00;;;9.43;100.00
73651;BME280;61944;52.538;6.108;2023-04-24T03:12:05;99622.78;;;9.48;100.00
73651;BME280;61944;52.538;6.108;2023-04-24T03:14:31;99625.19;;;9.53;100.00
73651;BME280;61944;52.538;6.108;2023-04-24T03:16:56;99625.16;;;9.57;100.00
73651;BME280;61944;52.538;6.108;2023-04-24T03:19:22;99641.16;;;9.64;100.00
73651;BME280;61944;52.538;6.108;2023-04-24T03:21:47;99627.59;;;9.48;100.00
73651;BME280;61944;52.538;6.108;2023-04-24T03:24:13;99631.56;;;9.57;100.00
73651;BME280;61944;52.538;6.108;2023-04-24T03:26:38;99625.19;;;9.50;100.00
73651;BME280;61944;52.538;6.108;2023-04-24T03:29:04;99633.53;;;9.57;100.00
73651;BME280;61944;52.538;6.108;2023-04-24T03:31:29;99631.16;;;9.48;100.00
73651;BME280;61944;52.538;6.108;2023-04-24T03:33:54;99629.97;;;9.64;100.00
73651;BME280;61944;52.538;6.108;2023-04-24T03:36:20;99641.16;;;9.39;100.00
73651;BME280;61944;52.538;6.108;2023-04-24T03:38:45;99629.97;;;9.42;100.00
73651;BME280;61944;52.538;6.108;2023-04-24T03:41:11;99640.34;;;9.52;100.00
73651;BME280;61944;52.538;6.108;2023-04-24T03:43:37;99642.34;;;9.70;100.00
73651;BME280;61944;52.538;6.108;2023-04-24T03:46:03;99641.97;;;9.14;100.00
73651;BME280;61944;52.538;6.108;2023-04-24T03:48:28;99651.53;;;9.56;100.00
73651;BME280;61944;52.538;6.108;2023-04-24T03:50:54;99637.19;;;9.32;100.00
73651;BME280;61944;52.538;6.108;2023-04-24T03:53:19;99639.16;;;9.39;100.00
73651;BME280;61944;52.538;6.108;2023-04-24T03:55:45;99634.00;;;9.27;100.00
73651;BME280;61944;52.538;6.108;2023-04-24T03:58:10;99641.56;;;9.15;100.00
73651;BME280;61944;52.538;6.108;2023-04-24T04:00:36;99641.94;;;9.46;100.00
73651;BME280;61944;52.538;6.108;2023-04-24T04:03:03;99646.75;;;9.06;100.00
73651;BME280;61944;52.538;6.108;2023-04-24T04:05:28;99649.94;;;9.15;100.00
73651;BME280;61944;52.538;6.108;2023-04-24T04:07:54;99647.56;;;9.32;100.00
73651;BME280;61944;52.538;6.108;2023-04-24T04:10:19;99649.16;;;9.22;100.00
73651;BME280;61944;52.538;6.108;2023-04-24T04:12:45;99643.56;;;9.33;100.00
73651;BME280;61944;52.538;6.108;2023-04-24T04:15:10;99659.50;;;9.50;100.00
73651;BME280;61944;52.538;6.108;2023-04-24T04:17:35;99641.16;;;9.42;100.00
73651;BME280;61944;52.538;6.108;2023-04-24T04:20:03;99668.69;;;9.40;100.00
73651;BME280;61944;52.538;6.108;2023-04-24T04:22:32;99663.13;;;9.36;100.00
73651;BME280;61944;52.538;6.108;2023-04-24T04:24:57;99677.06;;;9.26;100.00
73651;BME280;61944;52.538;6.108;2023-04-24T04:27:23;99682.25;;;9.31;100.00
73651;BME280;61944;52.538;6.108;2023-04-24T04:29:48;99681.84;;;9.29;100.00
73651;BME280;61944;52.538;6.108;2023-04-24T04:32:15;99688.63;;;9.31;100.00
73651;BME280;61944;52.538;6.108;2023-04-24T04:34:41;99681.03;;;9.10;100.00
73651;BME280;61944;52.538;6.108;2023-04-24T04:37:07;99673.09;;;9.30;100.00
73651;BME280;61944;52.538;6.108;2023-04-24T04:39:32;99689.44;;;9.35;100.00
73651;BME280;61944;52.538;6.108;2023-04-24T04:41:58;99694.22;;;9.31;100.00
73651;BME280;61944;52.538;6.108;2023-04-24T04:44:23;99693.03;;;9.29;100.00
73651;BME280;61944;52.538;6.108;2023-04-24T04:46:49;99687.03;;;9.23;100.00
73651;BME280;61944;52.538;6.108;2023-04-24T04:49:15;99702.59;;;9.35;100.00
73651;BME280;61944;52.538;6.108;2023-04-24T04:51:42;99699.41;;;9.11;100.00
73651;BME280;61944;52.538;6.108;2023-04-24T04:54:07;99714.56;;;9.14;100.00
73651;BME280;61944;52.538;6.108;2023-04-24T04:56:32;99714.16;;;9.15;100.00
73651;BME280;61944;52.538;6.108;2023-04-24T04:58:58;99709.75;;;8.97;100.00
73651;BME280;61944;52.538;6.108;2023-04-24T05:01:24;99720.53;;;9.16;100.00
73651;BME280;61944;52.538;6.108;2023-04-24T05:03:52;99708.19;;;9.28;100.00
73651;BME280;61944;52.538;6.108;2023-04-24T05:06:18;99717.72;;;8.98;100.00
73651;BME280;61944;52.538;6.108;2023-04-24T05:08:43;99731.69;;;9.09;100.00
73651;BME280;61944;52.538;6.108;2023-04-24T05:11:09;99716.16;;;9.22;100.00
73651;BME280;61944;52.538;6.108;2023-04-24T05:13:34;99724.13;;;9.31;100.00
73651;BME280;61944;52.538;6.108;2023-04-24T05:16:00;99741.31;;;9.36;100.00
73651;BME280;61944;52.538;6.108;2023-04-24T05:18:25;99733.69;;;9.15;100.00
73651;BME280;61944;52.538;6.108;2023-04-24T05:20:51;99745.66;;;9.12;100.00
73651;BME280;61944;52.538;6.108;2023-04-24T05:23:16;99745.66;;;9.12;100.00
73651;BME280;61944;52.538;6.108;2023-04-24T05:25:41;99748.88;;;9.22;100.00
73651;BME280;61944;52.538;6.108;2023-04-24T05:28:08;99753.69;;;9.32;100.00
73651;BME280;61944;52.538;6.108;2023-04-24T05:30:33;99755.25;;;9.33;100.00
73651;BME280;61944;52.538;6.108;2023-04-24T05:32:58;99764.44;;;9.37;100.00
73651;BME280;61944;52.538;6.108;2023-04-24T05:35:24;99766.41;;;9.22;100.00
73651;BME280;61944;52.538;6.108;2023-04-24T05:37:49;99781.13;;;9.08;100.00
73651;BME280;61944;52.538;6.108;2023-04-24T05:40:14;99778.31;;;8.94;100.00
73651;BME280;61944;52.538;6.108;2023-04-24T05:42:40;99771.22;;;9.22;100.00
73651;BME280;61944;52.538;6.108;2023-04-24T05:45:06;99787.94;;;9.14;100.00
73651;BME280;61944;52.538;6.108;2023-04-24T05:47:31;99793.13;;;9.20;100.00
73651;BME280;61944;52.538;6.108;2023-04-24T05:49:57;99790.72;;;9.07;100.00
73651;BME280;61944;52.538;6.108;2023-04-24T05:52:22;99787.13;;;9.21;100.00
73651;BME280;61944;52.538;6.108;2023-04-24T05:54:47;99798.28;;;9.10;100.00
73651;BME280;61944;52.538;6.108;2023-04-24T05:57:13;99810.34;;;9.43;100.00
73651;BME280;61944;52.538;6.108;2023-04-24T05:59:38;99809.16;;;9.59;100.00
73651;BME280;61944;52.538;6.108;2023-04-24T06:02:04;99814.34;;;9.53;100.00
73651;BME280;61944;52.538;6.108;2023-04-24T06:04:29;99809.53;;;9.39;100.00
73651;BME280;61944;52.538;6.108;2023-04-24T06:06:55;99816.31;;;9.34;100.00
73651;BME280;61944;52.538;6.108;2023-04-24T06:09:24;99823.09;;;9.48;100.00
73651;BME280;61944;52.538;6.108;2023-04-24T06:11:50;99823.09;;;9.48;100.00
73651;BME280;61944;52.538;6.108;2023-04-24T06:14:18;99827.13;;;9.54;100.00
73651;BME280;61944;52.538;6.108;2023-04-24T06:16:43;99832.31;;;9.63;100.00
73651;BME280;61944;52.538;6.108;2023-04-24T06:19:09;99840.31;;;9.75;100.00
73651;BME280;61944;52.538;6.108;2023-04-24T06:21:34;99838.34;;;9.83;100.00
73651;BME280;61944;52.538;6.108;2023-04-24T06:24:00;99839.13;;;9.83;100.00
73651;BME280;61944;52.538;6.108;2023-04-24T06:26:25;99842.72;;;9.87;100.00
73651;BME280;61944;52.538;6.108;2023-04-24T06:28:51;99843.94;;;9.83;100.00
73651;BME280;61944;52.538;6.108;2023-04-24T06:31:19;99849.53;;;9.83;100.00
73651;BME280;61944;52.538;6.108;2023-04-24T06:33:44;99855.13;;;9.93;100.00
73651;BME280;61944;52.538;6.108;2023-04-24T06:36:10;99864.28;;;9.90;100.00
73651;BME280;61944;52.538;6.108;2023-04-24T06:38:35;99858.69;;;9.83;100.00
73651;BME280;61944;52.538;6.108;2023-04-24T06:41:01;99869.09;;;9.93;100.00
73651;BME280;61944;52.538;6.108;2023-04-24T06:43:26;99869.09;;;10.08;100.00
73651;BME280;61944;52.538;6.108;2023-04-24T06:45:51;99874.28;;;10.09;100.00
73651;BME280;61944;52.538;6.108;2023-04-24T06:48:17;99875.84;;;9.78;100.00
73651;BME280;61944;52.538;6.108;2023-04-24T06:50:42;99879.06;;;9.94;100.00
73651;BME280;61944;52.538;6.108;2023-04-24T06:53:08;99882.25;;;9.96;100.00
73651;BME280;61944;52.538;6.108;2023-04-24T06:55:36;99877.47;;;9.90;100.00
73651;BME280;61944;52.538;6.108;2023-04-24T06:58:01;99875.88;;;10.00;100.00
73651;BME280;61944;52.538;6.108;2023-04-24T07:00:26;99882.25;;;9.89;100.00
73651;BME280;61944;52.538;6.108;2023-04-24T07:02:52;99886.25;;;9.95;100.00
73651;BME280;61944;52.538;6.108;2023-04-24T07:05:17;99891.06;;;9.91;100.00
73651;BME280;61944;52.538;6.108;2023-04-24T07:07:46;99895.84;;;9.87;100.00
73651;BME280;61944;52.538;6.108;2023-04-24T07:10:12;99889.06;;;9.85;100.00
73651;BME280;61944;52.538;6.108;2023-04-24T07:12:38;99895.00;;;9.72;100.00
73651;BME280;61944;52.538;6.108;2023-04-24T07:15:04;99897.41;;;9.81;100.00
73651;BME280;61944;52.538;6.108;2023-04-24T07:17:30;99906.19;;;9.76;100.00
73651;BME280;61944;52.538;6.108;2023-04-24T07:19:55;99903.81;;;9.96;100.00
73651;BME280;61944;52.538;6.108;2023-04-24T07:22:21;99897.81;;;10.01;100.00
73651;BME280;61944;52.538;6.108;2023-04-24T07:24:46;99909.44;;;10.07;100.00
73651;BME280;61944;52.538;6.108;2023-04-24T07:27:12;99911.84;;;10.08;100.00
73651;BME280;61944;52.538;6.108;2023-04-24T07:29:37;99912.63;;;10.02;100.00
73651;BME280;61944;52.538;6.108;2023-04-24T07:32:03;99916.63;;;10.15;100.00
73651;BME280;61944;52.538;6.108;2023-04-24T07:34:28;99913.84;;;10.18;100.00
73651;BME280;61944;52.538;6.108;2023-04-24T07:36:54;99920.59;;;10.03;100.00
73651;BME280;61944;52.538;6.108;2023-04-24T07:39:19;99926.59;;;9.98;100.00
73651;BME280;61944;52.538;6.108;2023-04-24T07:41:45;99936.56;;;9.99;100.00
73651;BME280;61944;52.538;6.108;2023-04-24T07:44:10;99937.34;;;9.92;100.00
73651;BME280;61944;52.538;6.108;2023-04-24T07:46:35;99944.53;;;9.86;100.00
73651;BME280;61944;52.538;6.108;2023-04-24T07:49:01;99954.88;;;9.68;100.00
73651;BME280;61944;52.538;6.108;2023-04-24T07:51:27;99961.63;;;9.60;100.00
73651;BME280;61944;52.538;6.108;2023-04-24T07:53:56;99963.63;;;9.55;100.00
73651;BME280;61944;52.538;6.108;2023-04-24T07:56:21;99962.84;;;9.69;100.00
73651;BME280;61944;52.538;6.108;2023-04-24T07:58:47;99966.06;;;9.75;100.00
73651;BME280;61944;52.538;6.108;2023-04-24T08:01:12;99977.16;;;9.57;100.00
73651;BME280;61944;52.538;6.108;2023-04-24T08:03:37;99978.59;;;9.15;100.00
73651;BME280;61944;52.538;6.108;2023-04-24T08:06:03;99973.91;;;9.37;100.00
73651;BME280;61944;52.538;6.108;2023-04-24T08:08:29;99985.06;;;9.37;100.00
73651;BME280;61944;52.538;6.108;2023-04-24T08:10:54;99993.78;;;9.25;100.00
73651;BME280;61944;52.538;6.108;2023-04-24T08:13:20;100000.16;;;9.25;100.00
73651;BME280;61944;52.538;6.108;2023-04-24T08:15:45;100016.19;;;9.32;100.00
73651;BME280;61944;52.538;6.108;2023-04-24T08:18:11;100025.66;;;9.13;100.00
73651;BME280;61944;52.538;6.108;2023-04-24T08:20:37;100028.09;;;9.22;100.00
73651;BME280;61944;52.538;6.108;2023-04-24T08:23:03;100036.03;;;9.16;100.00
73651;BME280;61944;52.538;6.108;2023-04-24T08:25:28;100044.13;;;9.35;100.00
73651;BME280;61944;52.538;6.108;2023-04-24T08:27:53;100046.81;;;9.18;100.00
73651;BME280;61944;52.538;6.108;2023-04-24T08:30:19;100066.53;;;8.91;100.00
73651;BME280;61944;52.538;6.108;2023-04-24T08:32:45;100068.50;;;8.87;100.00
73651;BME280;61944;52.538;6.108;2023-04-24T08:35:11;100065.50;;;9.10;100.00
73651;BME280;61944;52.538;6.108;2023-04-24T08:37:36;100076.72;;;9.21;100.00
73651;BME280;61944;52.538;6.108;2023-04-24T08:40:06;100083.16;;;9.25;100.00
73651;BME280;61944;52.538;6.108;2023-04-24T08:42:37;100083.28;;;8.91;100.00
73651;BME280;61944;52.538;6.108;2023-04-24T08:45:02;100082.16;;;8.99;100.00
73651;BME280;61944;52.538;6.108;2023-04-24T08:47:28;100088.66;;;9.14;100.00
73651;BME280;61944;52.538;6.108;2023-04-24T08:49:54;100082.81;;;9.30;100.00
73651;BME280;61944;52.538;6.108;2023-04-24T08:52:21;100085.59;;;9.30;100.00
73651;BME280;61944;52.538;6.108;2023-04-24T08:54:47;100095.25;;;9.43;100.00
73651;BME280;61944;52.538;6.108;2023-04-24T08:57:14;100100.38;;;9.34;100.00
73651;BME280;61944;52.538;6.108;2023-04-24T08:59:40;100108.09;;;9.59;100.00
73651;BME280;61944;52.538;6.108;2023-04-24T09:02:06;100112.69;;;9.26;100.00
73651;BME280;61944;52.538;6.108;2023-04-24T09:04:35;100110.75;;;9.37;100.00
73651;BME280;61944;52.538;6.108;2023-04-24T09:07:01;100119.53;;;9.32;100.00
73651;BME280;61944;52.538;6.108;2023-04-24T09:09:29;100113.63;;;9.48;100.00
73651;BME280;61944;52.538;6.108;2023-04-24T09:11:56;100116.00;;;9.46;100.00
73651;BME280;61944;52.538;6.108;2023-04-24T09:14:22;100127.56;;;9.44;100.00
73651;BME280;61944;52.538;6.108;2023-04-24T09:16:49;100133.25;;;9.55;100.00
73651;BME280;61944;52.538;6.108;2023-04-24T09:19:15;100129.59;;;9.47;100.00
73651;BME280;61944;52.538;6.108;2023-04-24T09:21:40;100131.59;;;9.50;100.00
73651;BME280;61944;52.538;6.108;2023-04-24T09:24:15;100139.09;;;9.39;100.00
73651;BME280;61944;52.538;6.108;2023-04-24T09:26:42;100147.19;;;9.51;100.00
73651;BME280;61944;52.538;6.108;2023-04-24T09:29:14;100151.06;;;9.36;100.00
73651;BME280;61944;52.538;6.108;2023-04-24T09:31:40;100163.47;;;9.42;100.00
73651;BME280;61944;52.538;6.108;2023-04-24T09:34:06;100160.00;;;9.60;100.00
73651;BME280;61944;52.538;6.108;2023-04-24T09:36:34;100163.56;;;9.56;100.00
73651;BME280;61944;52.538;6.108;2023-04-24T09:39:04;100161.50;;;9.43;100.00
73651;BME280;61944;52.538;6.108;2023-04-24T09:41:32;100180.63;;;9.44;100.00
73651;BME280;61944;52.538;6.108;2023-04-24T09:44:10;100175.94;;;9.55;100.00
73651;BME280;61944;52.538;6.108;2023-04-24T09:46:36;100176.72;;;9.52;100.00
73651;BME280;61944;52.538;6.108;2023-04-24T09:49:11;100182.28;;;9.52;100.00
73651;BME280;61944;52.538;6.108;2023-04-24T09:51:37;100196.50;;;9.33;100.00
73651;BME280;61944;52.538;6.108;2023-04-24T09:54:04;100202.19;;;9.44;100.00
73651;BME280;61944;52.538;6.108;2023-04-24T09:56:32;100215.00;;;9.48;100.00
73651;BME280;61944;52.538;6.108;2023-04-24T09:59:07;100210.53;;;9.40;100.00
73651;BME280;61944;52.538;6.108;2023-04-24T10:01:33;100214.06;;;9.33;100.00
73651;BME280;61944;52.538;6.108;2023-04-24T10:03:59;100234.03;;;9.35;100.00
73651;BME280;61944;52.538;6.108;2023-04-24T10:06:43;100237.09;;;9.23;100.00
73651;BME280;61944;52.538;6.108;2023-04-24T10:09:08;100239.28;;;9.00;100.00
73651;BME280;61944;52.538;6.108;2023-04-24T10:11:36;100242.63;;;9.16;100.00
73651;BME280;61944;52.538;6.108;2023-04-24T10:14:02;100246.38;;;9.31;100.00
73651;BME280;61944;52.538;6.108;2023-04-24T10:16:29;100249.78;;;9.13;100.00
73651;BME280;61944;52.538;6.108;2023-04-24T10:18:59;100253.53;;;9.28;100.00
73651;BME280;61944;52.538;6.108;2023-04-24T10:21:24;100256.78;;;9.34;100.00
73651;BME280;61944;52.538;6.108;2023-04-24T10:23:51;100252.22;;;9.15;100.00
73651;BME280;61944;52.538;6.108;2023-04-24T10:26:19;100245.91;;;9.25;100.00
73651;BME280;61944;52.538;6.108;2023-04-24T10:28:48;100258.84;;;9.41;100.00
73651;BME280;61944;52.538;6.108;2023-04-24T10:31:14;100262.19;;;9.61;100.00
73651;BME280;61944;52.538;6.108;2023-04-24T10:33:43;100273.38;;;9.61;100.00
73651;BME280;61944;52.538;6.108;2023-04-24T10:36:10;100277.78;;;9.62;100.00
73651;BME280;61944;52.538;6.108;2023-04-24T10:38:38;100280.25;;;9.29;100.00
73651;BME280;61944;52.538;6.108;2023-04-24T10:41:12;100281.75;;;9.61;100.00
73651;BME280;61944;52.538;6.108;2023-04-24T10:43:45;100275.03;;;9.69;100.00
73651;BME280;61944;52.538;6.108;2023-04-24T10:46:16;100276.66;;;9.70;100.00
73651;BME280;61944;52.538;6.108;2023-04-24T10:48:52;100286.22;;;9.69;100.00
73651;BME280;61944;52.538;6.108;2023-04-24T10:51:21;100288.75;;;9.40;100.00
73651;BME280;61944;52.538;6.108;2023-04-24T10:53:47;100291.25;;;9.52;100.00
73651;BME280;61944;52.538;6.108;2023-04-24T10:56:15;100306.06;;;9.56;100.00
73651;BME280;61944;52.538;6.108;2023-04-24T10:58:49;100304.97;;;9.68;100.00
73651;BME280;61944;52.538;6.108;2023-04-24T11:03:58;100321.47;;;9.84;100.00
73651;BME280;61944;52.538;6.108;2023-04-24T11:06:36;100320.66;;;9.84;100.00
73651;BME280;61944;52.538;6.108;2023-04-24T11:09:09;100319.91;;;9.87;100.00
73651;BME280;61944;52.538;6.108;2023-04-24T11:11:38;100335.16;;;9.93;100.00
73651;BME280;61944;52.538;6.108;2023-04-24T11:14:09;100324.50;;;9.65;100.00
73651;BME280;61944;52.538;6.108;2023-04-24T11:16:42;100335.91;;;9.90;100.00
73651;BME280;61944;52.538;6.108;2023-04-24T11:24:31;100330.97;;;10.24;100.00
73651;BME280;61944;52.538;6.108;2023-04-24T11:27:17;100335.66;;;10.06;100.00
73651;BME280;61944;52.538;6.108;2023-04-24T11:29:49;100331.34;;;9.71;100.00
73651;BME280;61944;52.538;6.108;2023-04-24T11:37:39;100338.66;;;9.86;100.00
73651;BME280;61944;52.538;6.108;2023-04-24T11:40:10;100357.06;;;9.87;100.00
73651;BME280;61944;52.538;6.108;2023-04-24T11:42:41;100363.91;;;9.93;100.00
73651;BME280;61944;52.538;6.108;2023-04-24T11:45:15;100367.03;;;9.88;100.00
73651;BME280;61944;52.538;6.108;2023-04-24T11:47:42;100383.47;;;9.93;100.00
73651;BME280;61944;52.538;6.108;2023-04-24T11:50:10;100380.91;;;9.77;100.00
73651;BME280;61944;52.538;6.108;2023-04-24T11:52:38;100385.28;;;9.75;100.00
73651;BME280;61944;52.538;6.108;2023-04-24T11:55:05;100394.03;;;9.70;100.00
73651;BME280;61944;52.538;6.108;2023-04-24T11:57:31;100397.69;;;9.40;100.00
73651;BME280;61944;52.538;6.108;2023-04-24T12:00:03;100396.25;;;9.53;100.00
73651;BME280;61944;52.538;6.108;2023-04-24T12:02:30;100399.63;;;9.70;100.00
73651;BME280;61944;52.538;6.108;2023-04-24T12:04:56;100403.25;;;9.40;100.00
73651;BME280;61944;52.538;6.108;2023-04-24T12:07:22;100397.16;;;9.65;100.00
73651;BME280;61944;52.538;6.108;2023-04-24T12:09:55;100405.69;;;9.42;100.00
73651;BME280;61944;52.538;6.108;2023-04-24T12:12:24;100401.94;;;9.64;100.00
73651;BME280;61944;52.538;6.108;2023-04-24T12:14:57;100404.84;;;9.75;100.00
73651;BME280;61944;52.538;6.108;2023-04-24T12:17:31;100400.94;;;9.83;100.00
73651;BME280;61944;52.538;6.108;2023-04-24T12:20:02;100404.38;;;9.69;100.00
73651;BME280;61944;52.538;6.108;2023-04-24T12:22:42;100403.69;;;9.80;100.00
73651;BME280;61944;52.538;6.108;2023-04-24T12:25:10;100421.41;;;9.57;100.00
73651;BME280;61944;52.538;6.108;2023-04-24T12:27:35;100411.44;;;9.56;100.00
73651;BME280;61944;52.538;6.108;2023-04-24T12:30:03;100415.53;;;9.66;100.00
73651;BME280;61944;52.538;6.108;2023-04-24T12:32:29;100417.72;;;9.83;100.00
73651;BME280;61944;52.538;6.108;2023-04-24T12:34:56;100423.34;;;9.90;100.00
73651;BME280;61944;52.538;6.108;2023-04-24T12:37:25;100419.66;;;9.79;100.00
73651;BME280;61944;52.538;6.108;2023-04-24T12:40:06;100427.97;;;10.13;100.00
73651;BME280;61944;52.538;6.108;2023-04-24T12:42:32;100444.81;;;10.20;100.00
73651;BME280;61944;52.538;6.108;2023-04-24T12:45:00;100420.66;;;10.01;100.00
73651;BME280;61944;52.538;6.108;2023-04-24T12:47:27;100434.81;;;9.78;100.00
73651;BME280;61944;52.538;6.108;2023-04-24T12:49:53;100431.31;;;9.88;100.00
73651;BME280;61944;52.538;6.108;2023-04-24T12:52:23;100436.91;;;9.88;100.00
73651;BME280;61944;52.538;6.108;2023-04-24T12:54:56;100440.66;;;10.00;100.00
73651;BME280;61944;52.538;6.108;2023-04-24T12:57:23;100443.78;;;9.94;100.00
73651;BME280;61944;52.538;6.108;2023-04-24T12:59:48;100450.56;;;9.93;100.00
73651;BME280;61944;52.538;6.108;2023-04-24T13:02:14;100458.72;;;9.72;100.00
73651;BME280;61944;52.538;6.108;2023-04-24T13:04:44;100465.00;;;9.62;100.00
73651;BME280;61944;52.538;6.108;2023-04-24T13:07:09;100464.69;;;9.70;100.00